Pine River, MN

7:39 AM CDT on June 24, 2017 (GMT -0500)
Pine River Regional

Weather History for KPWC - March, 2014

Change the Weather History Date:

Wednesday, March 12, 2014

  Actual Average Record
Temperature  
Mean Temperature 16 °F -  
Max Temperature 26 °F 32 °F 64 °F (2016)
Min Temperature 6 °F 11 °F -27 °F (2009)
Degree Days  
Heating Degree Days 49    
Moisture  
Dew Point 6 °F    
Average Humidity 64    
Maximum Humidity 80    
Minimum Humidity 46    
Precipitation  
Precipitation 0.00 in - - ()
Sea Level Pressure  
Sea Level Pressure 30.09 in    
Wind  
Wind Speed 6 mph (WNW)    
Max Wind Speed 13 mph    
Max Gust Speed 18 mph    
Visibility 10 miles    
Events      
Averages and records for this station are not official NWS values.
T = Trace of Precipitation, MM = Missing Value Source: NWS Daily Summary

Daily Weather History Graph

Daily Weather History Graph

Search for Another Location

Airport or City:

Trip Planner

Search our weather history database for the weather conditions in past years. The results will help you decide how hot, cold, wet, or windy it might be!

Date:

Astronomy

Mar. 12, 2014 Rise Set
Actual Time 7:36 AM CDT 7:19 PM CDT
Civil Twilight 7:05 AM CDT 7:49 PM CDT
Nautical Twilight 6:30 AM CDT 8:24 PM CDT
Astronomical Twilight 5:55 AM CDT 9:00 PM CDT
Moon 3:40 PM CDT (3/12) 5:19 AM CDT (3/12)
Length of Visible Light 12h 43m
Length of Day
11h 42m
Waxing Gibbous, 85% of the Moon is Illuminated
Mar 12
Waxing Gibbous
Mar 16
Full
Mar 23
Last Quarter
Mar 30
New
Apr 7
First Quarter

Hourly Weather History & Observations

Time (CDT) Temp. Windchill Dew Point Humidity Pressure Visibility Wind Dir Wind Speed Gust Speed Precip Events Conditions
12:12 AM 19.4 °F 7.9 °F 8.6 °F 63% 30.11 in 10.0 mi NNW 10.4 mph 17.3 mph N/A   Clear
12:32 AM 17.6 °F 6.4 °F 8.6 °F 68% 30.12 in 10.0 mi NNW 9.2 mph 18.4 mph N/A   Clear
12:53 AM 17.6 °F 5.7 °F 6.8 °F 63% 30.12 in 10.0 mi NNW 10.4 mph 18.4 mph N/A   Clear
1:12 AM 15.8 °F 2.1 °F 6.8 °F 68% 30.11 in 10.0 mi NNW 12.7 mph 18.4 mph N/A   Clear
1:33 AM 15.8 °F 6.1 °F 6.8 °F 68% 30.12 in 10.0 mi NNW 6.9 mph - N/A   Clear
1:53 AM 15.8 °F 3.4 °F 5.0 °F 62% 30.12 in 10.0 mi NNW 10.4 mph - N/A   Clear
2:12 AM 14.0 °F 2.0 °F 3.2 °F 62% 30.12 in 10.0 mi NNW 9.2 mph - N/A   Clear
2:32 AM 14.0 °F 2.0 °F 3.2 °F 62% 30.12 in 10.0 mi North 9.2 mph - N/A   Clear
2:53 AM 12.2 °F 2.9 °F 3.2 °F 67% 30.12 in 10.0 mi NNW 5.8 mph - N/A   Clear
3:12 AM 12.2 °F 0.7 °F 3.2 °F 67% 30.13 in 10.0 mi NNW 8.1 mph - N/A   Clear
3:33 AM 12.2 °F 2.9 °F 3.2 °F 67% 30.13 in 10.0 mi North 5.8 mph - N/A   Clear
3:53 AM 12.2 °F 0.7 °F 3.2 °F 67% 30.12 in 10.0 mi North 8.1 mph - N/A   Clear
4:12 AM 10.4 °F -1.5 °F 3.2 °F 73% 30.12 in 10.0 mi North 8.1 mph - N/A   Clear
4:33 AM 10.4 °F -0.4 °F 3.2 °F 73% 30.12 in 10.0 mi North 6.9 mph - N/A   Clear
4:53 AM 10.4 °F 2.2 °F 3.2 °F 73% 30.12 in 10.0 mi NNW 4.6 mph - N/A   Clear
5:12 AM 10.4 °F 2.2 °F 1.4 °F 67% 30.12 in 10.0 mi NNW 4.6 mph - N/A   Clear
5:33 AM 8.6 °F 0.1 °F 1.4 °F 73% 30.13 in 10.0 mi NNW 4.6 mph - N/A   Clear
5:52 AM 8.6 °F 0.1 °F 1.4 °F 73% 30.13 in 10.0 mi NNW 4.6 mph - N/A   Clear
6:13 AM 8.6 °F 0.1 °F 1.4 °F 73% 30.13 in 10.0 mi NW 4.6 mph - N/A   Clear
6:33 AM 8.6 °F 0.1 °F 1.4 °F 73% 30.13 in 10.0 mi NNW 4.6 mph - N/A   Clear
6:53 AM 6.8 °F -0.1 °F 1.4 °F 79% 30.14 in 10.0 mi NW 3.5 mph - N/A   Clear
7:12 AM 6.8 °F -0.1 °F -0.4 °F 72% 30.14 in 10.0 mi NNW 3.5 mph - N/A   Clear
7:33 AM 6.8 °F - 1.4 °F 79% 30.14 in 10.0 mi Calm Calm - N/A   Clear
7:53 AM 6.8 °F -0.1 °F 1.4 °F 79% 30.15 in 10.0 mi WNW 3.5 mph - N/A   Clear
8:12 AM 6.8 °F -3.5 °F 1.4 °F 79% 30.16 in 10.0 mi NW 5.8 mph - N/A   Clear
8:32 AM 8.6 °F 0.1 °F 1.4 °F 73% 30.16 in 10.0 mi NNW 4.6 mph - N/A   Clear
8:53 AM 8.6 °F -1.3 °F 1.4 °F 73% 30.16 in 10.0 mi North 5.8 mph - N/A   Clear
9:13 AM 10.4 °F 2.2 °F 1.4 °F 67% 30.16 in 10.0 mi North 4.6 mph - N/A   Clear
9:32 AM 10.4 °F 4.0 °F 1.4 °F 67% 30.16 in 10.0 mi North 3.5 mph - N/A   Clear
9:53 AM 10.4 °F - 1.4 °F 67% 30.16 in 10.0 mi Calm Calm - N/A   Clear
10:12 AM 12.2 °F 4.3 °F 3.2 °F 67% 30.15 in 10.0 mi ESE 4.6 mph - N/A   Clear
10:32 AM 12.2 °F - 3.2 °F 67% 30.15 in 10.0 mi Calm Calm - N/A   Clear
10:53 AM 12.2 °F - 3.2 °F 67% 30.15 in 10.0 mi Calm Calm - N/A   Clear
11:13 AM 15.8 °F - 1.4 °F 53% 30.15 in 10.0 mi Calm Calm - N/A   Clear
11:32 AM 15.8 °F 8.6 °F 1.4 °F 53% 30.14 in 10.0 mi ESE 4.6 mph - N/A   Clear
11:53 AM 15.8 °F - 1.4 °F 53% 30.14 in 10.0 mi Calm Calm - N/A   Clear
12:13 PM 17.6 °F - 1.4 °F 49% 30.13 in 10.0 mi Calm Calm - N/A   Clear
12:31 PM 17.6 °F - 1.4 °F 49% 30.13 in 10.0 mi Calm Calm - N/A   Clear
12:53 PM 19.4 °F 12.8 °F 1.4 °F 46% 30.13 in 10.0 mi East 4.6 mph - N/A   Clear
1:13 PM 17.6 °F 10.7 °F 3.2 °F 53% 30.12 in 10.0 mi SSE 4.6 mph - N/A   Clear
1:32 PM 19.4 °F 12.8 °F 3.2 °F 49% 30.12 in 10.0 mi East 4.6 mph - N/A   Clear
1:52 PM 19.4 °F - 3.2 °F 49% 30.11 in 10.0 mi Calm Calm - N/A   Clear
2:12 PM 19.4 °F 12.8 °F 5.0 °F 54% 30.10 in 10.0 mi South 4.6 mph - N/A   Clear
2:33 PM 21.2 °F 14.9 °F 5.0 °F 50% 30.10 in 10.0 mi SSE 4.6 mph - N/A   Clear
2:53 PM 21.2 °F 16.4 °F 5.0 °F 50% 30.08 in 10.0 mi ESE 3.5 mph - N/A   Clear
3:13 PM 23.0 °F 18.4 °F 6.8 °F 50% 30.08 in 10.0 mi North 3.5 mph - N/A   Clear
3:33 PM 24.8 °F - 6.8 °F 46% 30.07 in 10.0 mi Calm Calm - N/A   Clear
3:53 PM 24.8 °F 17.9 °F 8.6 °F 50% 30.07 in 10.0 mi South 5.8 mph - N/A   Clear
4:09 PM 24.8 °F - 8.6 °F 50% 30.06 in 10.0 mi Calm Calm - N/A   Clear
4:21 PM 24.8 °F 20.5 °F 8.6 °F 50% 30.06 in 10.0 mi South 3.5 mph - N/A   Clear
4:41 PM 26.6 °F 19.1 °F 10.4 °F 51% 30.05 in 10.0 mi WSW 6.9 mph - N/A   Clear
5:01 PM 24.8 °F 17.9 °F 10.4 °F 54% 30.04 in 10.0 mi SSW 5.8 mph - N/A   Clear
5:21 PM 24.8 °F 16.1 °F 12.2 °F 59% 30.04 in 10.0 mi SSW 8.1 mph - N/A   Clear
5:41 PM 26.6 °F 21.2 °F 12.2 °F 55% 30.04 in 10.0 mi West 4.6 mph - N/A   Clear
6:01 PM 24.8 °F 19.1 °F 12.2 °F 59% 30.04 in 10.0 mi West 4.6 mph - N/A   Clear
6:21 PM 24.8 °F 20.5 °F 12.2 °F 59% 30.04 in 7.0 mi WSW 3.5 mph - N/A   Clear
6:41 PM 24.8 °F 19.1 °F 12.2 °F 59% 30.04 in 10.0 mi SW 4.6 mph - N/A   Clear
7:01 PM 24.8 °F 20.5 °F 12.2 °F 59% 30.04 in 10.0 mi WSW 3.5 mph - N/A   Clear
7:21 PM 23.0 °F 18.4 °F 12.2 °F 63% 30.04 in 10.0 mi WSW 3.5 mph - N/A   Clear
7:41 PM 23.0 °F - 12.2 °F 63% 30.04 in 10.0 mi SW 2.3 mph - N/A   Scattered Clouds
8:01 PM 21.2 °F - 12.2 °F 68% 30.04 in 10.0 mi South 2.3 mph - N/A   Scattered Clouds
8:21 PM 19.4 °F 14.3 °F 12.2 °F 74% 30.02 in 10.0 mi South 3.5 mph - N/A   Clear
8:41 PM 19.4 °F - 10.4 °F 68% 30.03 in 10.0 mi South 2.3 mph - N/A   Clear
9:01 PM 19.4 °F - 12.2 °F 74% 30.02 in 10.0 mi South 2.3 mph - N/A   Clear
9:21 PM 19.4 °F 12.8 °F 12.2 °F 74% 30.01 in 10.0 mi SSE 4.6 mph - N/A   Clear
9:41 PM 17.6 °F 10.7 °F 12.2 °F 79% 30.00 in 10.0 mi South 4.6 mph - N/A   Clear
10:01 PM 17.6 °F 8.2 °F 12.2 °F 79% 29.99 in 10.0 mi South 6.9 mph - N/A   Scattered Clouds
10:21 PM 19.4 °F 11.5 °F 12.2 °F 74% 29.98 in 10.0 mi South 5.8 mph - N/A   Mostly Cloudy
10:41 PM 19.4 °F 10.4 °F 14.0 °F 80% 29.97 in 10.0 mi South 6.9 mph - N/A   Overcast
11:01 PM 21.2 °F 11.7 °F 14.0 °F 74% 29.95 in 10.0 mi South 8.1 mph - N/A   Overcast
11:21 PM 21.2 °F 13.6 °F 14.0 °F 74% 29.95 in 10.0 mi South 5.8 mph - N/A   Overcast
11:41 PM 21.2 °F 11.7 °F 15.8 °F 80% 29.93 in 10.0 mi South 8.1 mph - N/A   Overcast